createdAt,value
2022-11-14T00:04:00.813Z,20.55
2022-11-14T00:09:04.555Z,25.45
2022-11-14T00:14:12.863Z,22.27
2022-11-14T00:19:17.755Z,23.38
2022-11-14T00:24:22.475Z,25.33
2022-11-14T00:29:24.894Z,23.10
2022-11-14T00:34:27.196Z,23.05
2022-11-14T00:39:30.905Z,21.92
2022-11-14T00:44:33.665Z,24.30
2022-11-14T00:49:38.524Z,19.55
2022-11-14T00:54:42.322Z,23.52
2022-11-14T00:59:44.751Z,22.20
2022-11-14T01:04:47.087Z,22.95
2022-11-14T01:09:50.896Z,25.23
2022-11-14T01:14:54.904Z,23.23
2022-11-14T01:20:00.739Z,25.20
2022-11-14T01:25:05.532Z,25.10
2022-11-14T01:30:08.791Z,19.42
2022-11-14T01:35:11.261Z,23.38
2022-11-14T01:40:15.152Z,24.17
2022-11-14T01:45:51.499Z,23.45
2022-11-14T01:50:57.632Z,25.13
2022-11-14T01:56:04.838Z,25.60
2022-11-14T02:06:13.273Z,23.42
2022-11-14T02:11:18.351Z,25.52
2022-11-14T02:16:20.879Z,23.90
2022-11-14T02:21:24.727Z,24.58
2022-11-14T02:26:27.037Z,24.38
2022-11-14T02:31:29.348Z,25.40
2022-11-14T02:36:33.494Z,27.67
2022-11-14T02:41:35.808Z,26.88
2022-11-14T02:46:40.080Z,24.25
2022-11-14T02:51:49.619Z,23.60
2022-11-14T02:56:52.050Z,27.23
2022-11-14T03:01:54.444Z,27.80
2022-11-14T03:06:58.530Z,25.30
2022-11-14T03:12:04.246Z,28.30
2022-11-14T03:17:06.585Z,26.45
2022-11-14T03:22:12.871Z,24.40
2022-11-14T03:27:18.034Z,27.33
2022-11-14T03:32:23.025Z,23.33
2022-11-14T03:37:30.338Z,26.00
2022-11-14T03:47:40.682Z,26.65
2022-11-14T03:52:44.565Z,25.42
2022-11-14T03:57:50.155Z,26.90
2022-11-14T04:02:56.388Z,22.35
2022-11-14T04:08:00.379Z,29.60
2022-11-14T04:13:05.090Z,25.70
2022-11-14T04:18:10.589Z,26.73
2022-11-14T04:23:14.292Z,28.08
2022-11-14T04:28:16.811Z,26.23
2022-11-14T04:33:19.187Z,29.30
2022-11-14T04:38:22.889Z,27.73
2022-11-14T04:43:25.207Z,30.80
2022-11-14T04:48:27.701Z,29.33
2022-11-14T04:53:31.629Z,28.15
2022-11-14T04:58:34.140Z,31.35
2022-11-14T05:03:36.593Z,27.85
2022-11-14T05:08:40.309Z,28.67
2022-11-14T05:13:42.808Z,28.50
2022-11-14T05:18:47.126Z,24.27
2022-11-14T05:23:51.044Z,25.50
2022-11-14T05:29:00.764Z,30.60
2022-11-14T05:34:03.209Z,26.90
2022-11-14T05:39:06.866Z,25.15
2022-11-14T05:44:09.170Z,26.15
2022-11-14T05:49:11.365Z,24.05
2022-11-14T05:54:22.383Z,23.88
2022-11-14T05:59:24.612Z,21.63
2022-11-14T06:04:26.803Z,23.77
2022-11-14T06:09:30.429Z,24.02
2022-11-14T06:14:32.755Z,22.85
2022-11-14T06:19:36.861Z,24.33
2022-11-14T06:24:40.613Z,23.33
2022-11-14T06:29:42.970Z,22.90
2022-11-14T06:34:47.716Z,25.30
2022-11-14T06:39:51.567Z,24.02
2022-11-14T06:44:53.886Z,24.42
2022-11-14T06:49:56.270Z,25.30
2022-11-14T06:54:59.988Z,24.63
2022-11-14T07:00:05.741Z,26.48
2022-11-14T07:05:08.225Z,25.40
2022-11-14T07:10:12.626Z,27.50
2022-11-14T07:15:15.008Z,26.05
2022-11-14T07:20:17.467Z,26.08
2022-11-14T07:25:21.340Z,24.77
2022-11-14T07:30:23.681Z,25.40
2022-11-14T07:35:28.884Z,27.15
2022-11-14T07:40:32.773Z,22.88
2022-11-14T07:45:34.957Z,26.58
2022-11-14T07:50:37.206Z,27.30
2022-11-14T07:55:40.938Z,26.70
2022-11-14T08:00:45.170Z,23.80
2022-11-14T08:05:47.552Z,25.50
2022-11-14T08:10:51.264Z,26.02
2022-11-14T08:15:53.709Z,26.00
2022-11-14T08:20:55.975Z,25.23
2022-11-14T08:26:04.210Z,25.05
2022-11-14T08:31:06.751Z,23.98
2022-11-14T08:36:11.353Z,25.63
2022-11-14T08:41:15.030Z,24.23
2022-11-14T08:46:17.363Z,27.40
2022-11-14T08:51:19.909Z,25.02
2022-11-14T08:56:26.741Z,25.83
2022-11-14T09:01:29.156Z,26.73
2022-11-14T09:06:31.595Z,24.08
2022-11-14T09:11:37.954Z,25.25
2022-11-14T09:16:40.242Z,23.30
2022-11-14T09:21:42.751Z,24.15
2022-11-14T09:26:46.579Z,27.58
2022-11-14T09:31:51.553Z,24.15
2022-11-14T09:36:54.059Z,21.50
2022-11-14T09:42:15.800Z,24.48
2022-11-14T09:47:24.718Z,26.58
2022-11-14T09:52:33.840Z,25.92
2022-11-14T09:57:37.732Z,24.02
2022-11-14T10:02:49.724Z,29.17
2022-11-14T10:08:10.040Z,23.88
2022-11-14T10:13:26.422Z,25.23
2022-11-14T10:18:43.841Z,25.90
2022-11-14T10:24:01.017Z,25.55
2022-11-14T10:34:20.685Z,28.05
2022-11-14T10:39:27.935Z,29.17
2022-11-14T10:49:38.816Z,26.92
2022-11-14T10:54:45.900Z,22.35
2022-11-14T10:59:49.664Z,23.60
2022-11-14T11:04:52.203Z,22.52
2022-11-14T11:10:00.891Z,22.90
2022-11-14T11:15:16.150Z,22.02
2022-11-14T11:20:41.528Z,21.08
2022-11-14T11:25:43.953Z,20.10
2022-11-14T11:30:56.781Z,22.38
2022-11-14T11:36:02.609Z,23.17
2022-11-14T11:41:33.256Z,23.25
2022-11-14T11:46:47.190Z,23.67
2022-11-14T11:51:56.162Z,24.55
2022-11-14T11:57:02.612Z,22.20
2022-11-14T12:02:22.531Z,21.97
2022-11-14T12:07:38.603Z,20.75
2022-11-14T12:12:58.978Z,21.55
2022-11-14T12:18:27.422Z,20.17
2022-11-14T12:23:59.825Z,20.35
2022-11-14T12:29:25.245Z,20.60
2022-11-14T12:34:32.750Z,21.38
2022-11-14T12:39:35.197Z,21.23
2022-11-14T12:44:39.723Z,20.27
2022-11-14T12:50:02.087Z,20.55
2022-11-14T12:55:04.620Z,19.92
2022-11-14T13:00:09.462Z,23.48
2022-11-14T13:05:33.598Z,22.23
2022-11-14T13:10:39.270Z,22.65
2022-11-14T13:15:51.735Z,21.48
2022-11-14T13:21:05.156Z,23.10
2022-11-14T13:26:43.819Z,22.95
2022-11-14T13:31:51.675Z,22.70
2022-11-14T13:37:05.523Z,20.73
2022-11-14T13:42:28.646Z,21.63
2022-11-14T13:48:13.065Z,22.02
2022-11-14T13:53:20.170Z,23.83
2022-11-14T13:58:33.301Z,20.42
2022-11-14T14:03:52.175Z,22.55
2022-11-14T14:09:23.487Z,22.48
2022-11-14T14:14:39.760Z,22.65
2022-11-14T14:19:53.504Z,20.23
2022-11-14T14:25:05.139Z,22.23
2022-11-14T14:30:11.010Z,23.35
2022-11-14T14:35:24.749Z,23.23
2022-11-14T14:40:33.788Z,20.73
2022-11-14T14:45:45.453Z,22.88
2022-11-14T14:50:51.377Z,20.23
2022-11-14T14:55:57.949Z,22.83
2022-11-14T15:01:03.016Z,23.17
2022-11-14T15:06:07.856Z,21.38
2022-11-14T15:11:14.111Z,22.58
2022-11-14T15:16:17.139Z,24.02
2022-11-14T15:21:30.415Z,20.63
2022-11-14T15:26:35.714Z,22.88
2022-11-14T15:31:38.098Z,21.60
2022-11-14T15:37:18.281Z,21.77
2022-11-14T15:42:28.642Z,23.52
2022-11-14T15:47:38.383Z,24.63
2022-11-14T15:52:47.919Z,20.20
2022-11-14T15:58:06.752Z,22.65
2022-11-14T16:03:17.566Z,23.23
2022-11-14T16:08:21.059Z,24.15
2022-11-14T16:13:24.908Z,24.13
2022-11-14T16:18:27.142Z,24.73
2022-11-14T16:23:30.000Z,24.27
2022-11-14T16:28:34.095Z,24.70
2022-11-14T16:33:42.572Z,24.15
2022-11-14T16:38:48.578Z,25.13
2022-11-14T16:43:56.985Z,24.75
2022-11-14T16:48:59.368Z,23.05
2022-11-14T16:54:01.679Z,21.42
2022-11-14T16:59:05.884Z,23.77
2022-11-14T17:04:08.520Z,23.35
2022-11-14T17:09:13.536Z,23.38
2022-11-14T17:14:17.236Z,22.42
2022-11-14T17:19:19.744Z,23.98
2022-11-14T17:24:24.106Z,23.73
2022-11-14T17:29:31.158Z,22.90
2022-11-14T17:34:33.586Z,23.25
2022-11-14T17:39:36.248Z,23.38
2022-11-14T17:44:43.836Z,24.65
2022-11-14T17:49:46.341Z,23.13
2022-11-14T17:54:48.673Z,22.02
2022-11-14T17:59:52.368Z,22.58
2022-11-14T18:04:54.561Z,23.10
2022-11-14T18:10:00.953Z,22.60
2022-11-14T18:15:05.413Z,24.87
2022-11-14T18:20:09.278Z,22.70
2022-11-14T18:25:11.588Z,22.40
2022-11-14T18:30:39.737Z,24.15
2022-11-14T18:35:37.942Z,23.60
2022-11-14T18:40:43.846Z,24.23
2022-11-14T18:45:48.195Z,26.23
2022-11-14T18:50:51.127Z,22.25
2022-11-14T18:55:53.646Z,24.67
2022-11-14T19:00:57.773Z,24.98
2022-11-14T19:06:02.644Z,23.52
2022-11-14T19:11:07.341Z,23.63
2022-11-14T19:16:17.061Z,22.55
2022-11-14T19:21:19.698Z,23.70
2022-11-14T19:26:22.449Z,23.08
2022-11-14T19:31:26.232Z,24.02
2022-11-14T19:36:57.616Z,23.30
2022-11-14T19:41:51.224Z,24.20
2022-11-14T19:46:55.228Z,25.00
2022-11-14T19:51:57.622Z,25.38
2022-11-14T19:56:59.827Z,22.83
2022-11-14T20:02:03.917Z,24.77
2022-11-14T20:07:06.777Z,24.85
2022-11-14T20:12:09.054Z,23.90
2022-11-14T20:17:12.982Z,27.42
2022-11-14T20:22:15.506Z,25.58
2022-11-14T20:27:22.083Z,23.63
2022-11-14T20:32:26.195Z,22.98
2022-11-14T20:37:28.619Z,26.08
2022-11-14T20:42:30.981Z,25.60
2022-11-14T20:47:34.840Z,24.38
2022-11-14T20:52:37.234Z,22.70
2022-11-14T20:57:40.382Z,24.05
2022-11-14T21:02:44.092Z,23.98
2022-11-14T21:07:46.493Z,23.80
2022-11-14T21:12:49.644Z,25.67
2022-11-14T21:17:56.135Z,24.02
2022-11-14T21:22:58.432Z,24.55
2022-11-14T21:28:00.593Z,24.17
2022-11-14T21:33:04.472Z,23.65
2022-11-14T21:38:06.725Z,23.20
2022-11-14T21:43:09.083Z,23.85
2022-11-14T21:48:12.882Z,23.27
2022-11-14T21:53:15.135Z,20.63
2022-11-14T21:58:17.499Z,20.80
2022-11-14T22:03:21.298Z,22.75
2022-11-14T22:08:28.057Z,22.30
2022-11-14T22:13:31.711Z,22.88
2022-11-14T22:18:35.681Z,21.88
2022-11-14T22:23:37.951Z,21.65
2022-11-14T22:28:40.679Z,21.05
2022-11-14T22:33:47.331Z,20.85
2022-11-14T22:38:54.241Z,19.92
2022-11-14T22:43:57.591Z,21.10
2022-11-14T22:49:01.503Z,20.42
2022-11-14T22:54:03.960Z,20.55
2022-11-14T22:59:06.331Z,20.02
2022-11-14T23:04:10.574Z,19.08
2022-11-14T23:09:12.912Z,18.67
2022-11-14T23:14:15.386Z,19.42
2022-11-14T23:19:19.178Z,19.10
2022-11-14T23:24:21.499Z,17.77
2022-11-14T23:29:23.915Z,16.17
2022-11-14T23:34:27.641Z,17.48
2022-11-14T23:39:29.905Z,17.42
2022-11-14T23:44:32.220Z,17.23
2022-11-14T23:49:38.818Z,18.10
2022-11-14T23:54:41.196Z,16.77
2022-11-14T23:59:43.604Z,16.88
